Terminal Aerodrome Forecast
Issued by NWS

Home | Current Version | Previous Version | Graphics & Text | Print | Product List | Glossary On
Versions: 1 2 3 4 5 6 7 8 9 10 11 12 13 14 15 16 17 18
000
FTUS43 KIWX 251700
TAFSBN
TAF
KSBN 251720Z 2518/2618 21022G31KT P6SM BKN035
      TEMPO 2518/2521 6SM -SHRA BKN025
     FM252300 19011KT P6SM SCT030
     FM260900 19010KT P6SM BKN020=

USA.gov is the U.S. government's official web portal to all federal, state and local government web resources and services.